Flight Track Log - Related Links

Times and Time Zones

All times are in EDT time to prevent confusion due to time zone crossing. See the LXJ444 flight status page for this flight to view local times or setup timezone preferences in your user account.


Time Position Orientation Groundspeed Altitude Reporting Facility
EDT Latitude Longitude Course Direction KTS MPH feet Rate Location/Type
Sat 03:49:22 PM 43.5022 -83.9806 200° South 285 328 5,500  Level Cleveland Center
Sat 03:50:22 PM 43.4944 -83.8914 97° East 280 322 8,700 3,250 Climbing Cleveland Center
Sat 03:51:22 PM 43.4664 -83.7783 109° East 286 329 12,000 3,300 Climbing Cleveland Center
Sat 03:52:22 PM 43.4064 -83.6808 130° Southeast 300 345 15,300 3,450 Climbing Cleveland Center
Sat 03:53:22 PM 43.3342 -83.5831 135° Southeast 325 374 18,900 2,450 Climbing Cleveland Center
Sat 03:54:00 PM 43.1412 -83.6461 200° South  Level FlightAware Approximate
Sat 03:54:22 PM 43.2536 -83.4708 135° Southeast 353 406 20,200  Level Cleveland Center
Sat 03:55:22 PM 43.1650 -83.3469 134° Southeast 395 455 21,700 2,250 Climbing Cleveland Center
Sat 03:56:22 PM 43.0800 -83.2353 136° Southeast 414 476 24,700 2,850 Climbing Cleveland Center
Sat 03:57:22 PM 42.9969 -83.1239 136° Southeast 420 483 27,400 2,400 Climbing Cleveland Center
Sat 03:58:22 PM 42.9142 -83.0042 133° Southeast 420 483 29,500 1,750 Climbing Cleveland Center
Sat 03:59:22 PM 42.8269 -82.8847 135° Southeast 425 489 30,900 1,600 Climbing Cleveland Center
Sat 04:00:22 PM 42.7356 -82.7625 135° Southeast 437 503 32,700 1,600 Climbing Cleveland Center
Sat 04:01:22 PM 42.6439 -82.6436 136° Southeast 447 514 34,100 1,200 Climbing Cleveland Center
Sat 04:02:22 PM 42.5544 -82.5194 134° Southeast 453 521 35,100 900 Climbing Cleveland Center
Sat 04:03:22 PM 42.4644 -82.4042 137° Southeast 453 521 35,900 800 Climbing Cleveland Center
Sat 04:04:22 PM 42.3767 -82.2864 135° Southeast 448 516 36,700 1,100 Climbing Cleveland Center
Sat 04:05:22 PM 42.2889 -82.1661 135° Southeast 448 516 38,100 1,300 Climbing Cleveland Center
Sat 04:06:22 PM 42.2131 -82.0633 135° Southeast 442 509 39,300 1,100 Climbing Cleveland Center
Sat 04:07:22 PM 42.1228 -81.9519 138° Southeast 442 509 40,300 850 Climbing Cleveland Center
Sat 04:08:22 PM 42.0386 -81.8383 135° Southeast 437 503 41,000 350 Climbing Cleveland Center
Sat 04:09:22 PM 41.9397 -81.7081 136° Southeast 443 510 41,000  Level Cleveland Center
Sat 04:10:22 PM 41.8472 -81.5894 136° Southeast 448 516 41,000  Level Cleveland Center
Sat 04:11:22 PM 41.7481 -81.4625 136° Southeast 463 533 41,000  Level Cleveland Center
Sat 04:12:22 PM 41.6617 -81.3281 131° Southeast 474 545 41,000  Level Cleveland Center
Sat 04:13:22 PM 41.6189 -81.1497 108° East 484 557 41,000  Level Cleveland Center
Sat 04:14:22 PM 41.5819 -80.9717 105° East 490 564 41,000  Level Cleveland Center
Sat 04:15:22 PM 41.5492 -80.8050 105° East 497 572 41,000 -50 Level Cleveland Center
Sat 04:16:22 PM 41.5117 -80.6275 106° East 497 572 40,900 -750 Descending Cleveland Center
Sat 04:17:22 PM 41.4722 -80.4472 106° East 496 571 39,500 -1,500 Descending Cleveland Center
Sat 04:18:22 PM 41.4364 -80.2703 105° East 502 578 37,900 -1,550 Descending Cleveland Center
Sat 04:19:22 PM 41.3961 -80.0878 106° East 502 578 36,400 -1,250 Descending Cleveland Center
Sat 04:20:22 PM 41.3556 -79.9136 107° East 496 571 35,400 -700 Descending Cleveland Center
Sat 04:21:22 PM 41.3067 -79.7456 111° Southeast 496 571 35,000 -200 Descending Cleveland Center
Sat 04:22:22 PM 41.2075 -79.6117 135° Southeast 469 540 35,000  Level Cleveland Center
Sat 04:23:22 PM 41.1106 -79.5000 139° Southeast 464 534 35,000  Level Cleveland Center
Sat 04:24:22 PM 41.0136 -79.3833 138° Southeast 464 534 35,000 -700 Level Cleveland Center
Sat 04:25:22 PM 40.9164 -79.2669 138° Southeast 471 542 33,600 -1,450 Descending Cleveland Center
Sat 04:26:22 PM 40.8192 -79.1536 139° Southeast 471 542 32,100 -1,500 Descending Cleveland Center
Sat 04:27:22 PM 40.7217 -79.0408 139° Southeast 471 542 30,600 -1,500 Descending Cleveland Center
Sat 04:28:22 PM 40.6242 -78.9281 139° Southeast 466 536 29,100 -1,500 Descending Cleveland Center
Sat 04:29:22 PM 40.5267 -78.8131 138° Southeast 466 536 27,600 -1,500 Descending Cleveland Center
Sat 04:30:22 PM 40.4311 -78.6983 138° Southeast 466 536 26,100 -1,450 Descending Cleveland Center
Sat 04:31:22 PM 40.3353 -78.5894 139° Southeast 466 536 24,700 -1,450 Descending Cleveland Center
Sat 04:32:22 PM 40.2375 -78.4781 139° Southeast 461 531 23,200 -2,050 Descending Cleveland Center
Sat 04:33:22 PM 40.1478 -78.3722 138° Southeast 461 531 20,600 -2,867 Descending Cleveland Center
Sat 04:35:22 PM 39.9839 -78.1828 138° Southeast 425 489 14,600 -2,917 Descending Washington Center
Sat 04:36:23 PM 39.9044 -78.0906 138° Southeast 402 463 11,800 -2,115 Descending Washington Center
Sat 04:37:24 PM 39.8206 -78.0175 146° Southeast 380 437 10,300 -885 Descending Washington Center
Sat 04:38:25 PM 39.7214 -77.9789 163° South 362 417 10,000 -151 Descending Washington Center
Sat 04:39:23 PM 39.6261 -77.9436 164° South 362 417 10,000 -259 Level Washington Center
Sat 04:41:07 PM 39.4667 -77.8833 164° South 287 330 9,300 -496 Descending Potomac TRACON
Sat 04:41:24 PM 39.4525 -77.8761 159° South 343 395 9,000 -1,760 Descending Washington Center
Sat 04:42:22 PM 39.3800 -77.8469 163° South 298 343 7,100 -1,513 Descending Washington Center
Sat 04:43:23 PM 39.3031 -77.8392 176° South 283 326 6,000 -550 Descending Washington Center
Sat 04:44:22 PM 39.2300 -77.8478 185° South 268 308 6,000  Level Washington Center
Sat 04:45:22 PM 39.1628 -77.8778 199° South 268 308 6,000  Level Washington Center
Sat 04:46:23 PM 39.0933 -77.9078 199° South 268 308 6,000  Level Washington Center
Sat 04:48:08 PM 38.9667 -77.9667 200° South 262 302 6,000  Level Potomac TRACON
Sat 04:49:08 PM 38.9000 -78.0000 201° Southwest 271 312 6,000  Level Potomac TRACON
Sat 04:50:08 PM 38.8167 -78.0167 189° South 284 327 6,000  Level Potomac TRACON
Sat 04:51:08 PM 38.7667 -77.9500 134° Southeast 285 328 6,000 -500 Level Potomac TRACON
Sat 04:52:08 PM 38.7333 -77.8667 117° Southeast 262 302 5,000 -496 Descending Potomac TRACON
Sat 04:53:09 PM 38.7167 -77.8000 108° East 243 280 5,000  Level Potomac TRACON
Sat 04:54:09 PM 38.7167 -77.7000 90° East 244 281 5,000 -368 Level Potomac TRACON
Sat 04:55:03 PM 38.7167 -77.6333 90° East 237 273 4,300 -579 Descending Potomac TRACON
Sat 04:56:03 PM 38.7167 -77.5500 90° East 241 277 3,900 -650 Descending Potomac TRACON
Sat 04:57:03 PM 38.7167 -77.4667 90° East 250 288 3,000 -450 Descending Potomac TRACON
Sat 04:58:03 PM 38.7833 -77.4333 21° North 229 264 3,000 -526 Level Potomac TRACON
Sat 04:58:57 PM 38.8333 -77.4333 360° North 221 254 2,000 -1,111 Descending Potomac TRACON

Login

Don't have an account? Register now (free) for customized features, flight alerts, and more!